Time;durP1;ratioP1;P1;durP2;ratioP2;P2;SDS_P1;SDS_P2;PMS_P1;PMS_P2;Temp;Humidity;BMP_temperature;BMP_pressure;BME280_temperature;BME280_humidity;BME280_pressure;Samples;Min_cycle;Max_cycle;Signal;HPM_P1;HPM_P2
2023/12/18 00:01:13;;;;;;;115.30;106.77;;;5.10;99.90;;;;;;5057322;28;20033;-68
2023/12/18 00:03:39;;;;;;;112.00;103.93;;;5.20;99.90;;;;;;5057192;28;20032;-68
2023/12/18 00:06:07;;;;;;;92.80;85.97;;;5.30;99.90;;;;;;5057497;28;20032;-68
2023/12/18 00:08:33;;;;;;;98.07;90.80;;;5.40;99.90;;;;;;5056780;28;20055;-68
2023/12/18 00:10:59;;;;;;;102.30;94.80;;;5.30;99.90;;;;;;5055972;28;20044;-68
2023/12/18 00:13:25;;;;;;;108.10;99.33;;;5.10;99.90;;;;;;5055707;28;20052;-68
2023/12/18 00:15:51;;;;;;;124.27;115.90;;;5.00;99.90;;;;;;5046910;28;20043;-68
2023/12/18 00:18:17;;;;;;;103.90;96.30;;;5.00;99.90;;;;;;5038867;28;20056;-68
2023/12/18 00:20:44;;;;;;;109.67;102.03;;;4.80;99.90;;;;;;5048437;28;20025;-68
2023/12/18 00:23:10;;;;;;;74.37;66.97;;;5.00;99.90;;;;;;5063280;28;20040;-68
2023/12/18 00:25:36;;;;;;;63.87;58.13;;;5.20;99.90;;;;;;5053605;28;20022;-68
2023/12/18 00:28:02;;;;;;;53.53;48.77;;;5.30;99.90;;;;;;5049880;28;20025;-68
2023/12/18 00:30:28;;;;;;;54.00;48.87;;;5.40;99.90;;;;;;5056954;28;20040;-68
2023/12/18 00:32:54;;;;;;;76.60;68.53;;;5.60;99.90;;;;;;5058074;28;20040;-68
2023/12/18 00:35:20;;;;;;;85.60;78.70;;;5.70;99.90;;;;;;5056642;28;20377;-68
2023/12/18 00:37:46;;;;;;;80.57;74.40;;;5.70;99.90;;;;;;5038096;28;20040;-68
2023/12/18 00:40:12;;;;;;;93.57;86.47;;;5.70;99.90;;;;;;5048834;28;20393;-68
2023/12/18 00:42:38;;;;;;;79.30;73.30;;;5.70;99.90;;;;;;5045067;28;20037;-68
2023/12/18 00:45:05;;;;;;;85.80;79.03;;;5.70;99.90;;;;;;5057662;28;20025;-68
2023/12/18 00:47:31;;;;;;;87.50;81.20;;;5.70;99.90;;;;;;5057908;28;20048;-68
2023/12/18 00:49:58;;;;;;;84.83;78.73;;;5.80;99.90;;;;;;5057590;28;20497;-68
2023/12/18 00:52:24;;;;;;;75.23;69.43;;;5.70;99.90;;;;;;5056972;28;20659;-68
2023/12/18 00:54:50;;;;;;;99.87;92.23;;;5.40;99.90;;;;;;5051825;28;20044;-68
2023/12/18 00:57:16;;;;;;;82.40;76.30;;;5.30;99.90;;;;;;5037387;28;20040;-68
2023/12/18 00:59:42;;;;;;;80.00;74.33;;;5.40;99.90;;;;;;5034878;28;20041;-68
2023/12/18 01:02:08;;;;;;;85.03;79.00;;;5.50;99.90;;;;;;5046349;28;20037;-68
2023/12/18 01:04:35;;;;;;;81.83;76.17;;;5.50;99.90;;;;;;5054466;28;20037;-68
2023/12/18 01:07:01;;;;;;;115.90;108.33;;;5.50;99.90;;;;;;5053974;28;20029;-68
2023/12/18 01:09:27;;;;;;;96.43;90.20;;;5.50;99.90;;;;;;5054301;28;20390;-68
2023/12/18 01:11:53;;;;;;;84.03;78.33;;;5.50;99.90;;;;;;5039816;28;20040;-68
2023/12/18 01:14:19;;;;;;;72.00;66.33;;;5.50;99.90;;;;;;5049137;28;20382;-68
2023/12/18 01:16:45;;;;;;;83.80;77.73;;;5.20;99.90;;;;;;5053050;28;20490;-68
2023/12/18 01:19:12;;;;;;;86.10;80.00;;;5.30;99.90;;;;;;5040917;28;20045;-68
2023/12/18 01:21:38;;;;;;;95.60;88.97;;;5.30;99.90;;;;;;5046355;28;20037;-68
2023/12/18 01:24:04;;;;;;;92.57;86.47;;;5.30;99.90;;;;;;5044520;28;20032;-68
2023/12/18 01:26:30;;;;;;;123.97;116.37;;;5.40;99.90;;;;;;5047866;28;20029;-68
2023/12/18 01:28:56;;;;;;;76.73;70.80;;;5.40;99.90;;;;;;5051461;28;20029;-68
2023/12/18 01:31:23;;;;;;;51.83;47.57;;;5.50;99.90;;;;;;5033460;28;20041;-69
2023/12/18 01:33:51;;;;;;;48.70;44.57;;;5.50;99.90;;;;;;5050652;28;20041;-68
2023/12/18 01:36:17;;;;;;;47.13;43.27;;;5.20;99.90;;;;;;5048014;28;20382;-68
2023/12/18 01:38:43;;;;;;;49.27;44.77;;;4.90;99.90;;;;;;5053641;28;20036;-68
2023/12/18 01:41:09;;;;;;;52.30;47.90;;;4.60;99.90;;;;;;5044844;28;20029;-68
2023/12/18 01:43:36;;;;;;;81.63;75.83;;;4.40;99.90;;;;;;5034081;28;20025;-68
2023/12/18 01:46:03;;;;;;;109.30;102.23;;;4.50;99.90;;;;;;5039304;28;20492;-68
2023/12/18 01:48:29;;;;;;;83.00;77.20;;;4.70;99.90;;;;;;5034553;28;20064;-68
2023/12/18 01:50:56;;;;;;;47.80;44.03;;;4.90;99.90;;;;;;5052949;28;20044;-68
2023/12/18 01:53:38;;;;;;;57.83;53.47;;;4.90;99.90;;;;;;5052124;28;20052;-68
2023/12/18 01:56:05;;;;;;;92.87;86.73;;;4.80;99.90;;;;;;5044594;28;20048;-68
2023/12/18 01:58:31;;;;;;;93.80;87.40;;;4.60;99.90;;;;;;5049039;28;20056;-68
2023/12/18 02:00:57;;;;;;;99.67;92.77;;;4.70;99.90;;;;;;5049587;28;20043;-68
2023/12/18 02:03:23;;;;;;;85.30;79.53;;;4.70;99.90;;;;;;5053508;28;20377;-68
2023/12/18 02:05:49;;;;;;;111.20;104.27;;;4.90;99.90;;;;;;5051624;28;20032;-68
2023/12/18 02:08:16;;;;;;;100.43;93.90;;;4.80;99.90;;;;;;5053337;28;20044;-69
2023/12/18 02:10:42;;;;;;;81.27;75.73;;;4.60;99.90;;;;;;5052780;28;20412;-69
2023/12/18 02:13:08;;;;;;;84.00;78.40;;;4.70;99.90;;;;;;5052193;28;20032;-68
2023/12/18 02:15:34;;;;;;;81.37;75.33;;;4.70;99.90;;;;;;5049226;28;20040;-68
2023/12/18 02:18:00;;;;;;;82.80;77.23;;;4.70;99.90;;;;;;5033364;28;20038;-68
2023/12/18 02:20:26;;;;;;;88.27;82.33;;;4.80;99.90;;;;;;5032941;28;20049;-68
2023/12/18 02:22:53;;;;;;;78.70;73.27;;;4.60;99.90;;;;;;5038392;28;20025;-69
2023/12/18 02:25:19;;;;;;;70.37;65.07;;;4.60;99.90;;;;;;5052290;28;20490;-68
2023/12/18 02:27:45;;;;;;;57.53;52.73;;;4.70;99.90;;;;;;5053244;28;20030;-68
2023/12/18 02:30:15;;;;;;;50.47;46.17;;;4.90;99.90;;;;;;5049324;28;20037;-68
2023/12/18 02:32:42;;;;;;;64.93;60.43;;;5.00;99.90;;;;;;5049639;28;20477;-68
2023/12/18 02:35:08;;;;;;;56.07;51.87;;;5.10;99.90;;;;;;5051062;28;20375;-68
2023/12/18 02:37:34;;;;;;;75.27;70.17;;;5.20;99.90;;;;;;5032801;28;20036;-68
2023/12/18 02:40:00;;;;;;;104.20;97.53;;;5.20;99.90;;;;;;5032110;28;20052;-68
2023/12/18 02:42:26;;;;;;;94.07;87.67;;;5.00;99.90;;;;;;5032565;28;20037;-68
2023/12/18 02:44:53;;;;;;;118.37;110.63;;;4.80;99.90;;;;;;5032942;28;20037;-68
2023/12/18 02:47:19;;;;;;;100.57;94.07;;;4.90;99.90;;;;;;5037822;28;20025;-68
2023/12/18 02:49:45;;;;;;;101.00;94.73;;;4.90;99.90;;;;;;5051376;28;20489;-68
2023/12/18 02:52:12;;;;;;;86.17;80.17;;;4.80;99.90;;;;;;5051983;28;20028;-69
2023/12/18 02:54:38;;;;;;;70.00;65.13;;;4.80;99.90;;;;;;5052014;28;20045;-68
2023/12/18 02:57:04;;;;;;;68.83;63.97;;;4.90;99.90;;;;;;5038470;28;20374;-68
2023/12/18 02:59:30;;;;;;;64.83;59.93;;;4.90;99.90;;;;;;5052211;28;20437;-68
2023/12/18 03:01:56;;;;;;;116.47;109.40;;;4.70;99.90;;;;;;5044440;28;20032;-68
2023/12/18 03:04:22;;;;;;;83.43;77.83;;;4.80;99.90;;;;;;5050505;28;20037;-68
2023/12/18 03:06:48;;;;;;;77.27;71.93;;;4.70;99.90;;;;;;5037720;28;20037;-68
2023/12/18 03:09:15;;;;;;;80.90;75.23;;;4.60;99.90;;;;;;5032525;28;20037;-68
2023/12/18 03:11:41;;;;;;;44.30;40.63;;;4.50;99.90;;;;;;5043846;28;20060;-68
2023/12/18 03:14:09;;;;;;;57.37;52.93;;;4.20;99.90;;;;;;5051693;28;20037;-68
2023/12/18 03:16:35;;;;;;;76.87;71.63;;;4.20;99.90;;;;;;5034341;28;20033;-68
2023/12/18 03:19:01;;;;;;;86.57;80.70;;;4.20;99.90;;;;;;5051657;28;20037;-68
2023/12/18 03:21:27;;;;;;;74.90;69.43;;;4.20;99.90;;;;;;5044651;28;20041;-68
2023/12/18 03:23:53;;;;;;;75.10;70.20;;;4.30;99.90;;;;;;5051466;28;20044;-68
2023/12/18 03:26:20;;;;;;;70.13;65.17;;;4.20;99.90;;;;;;5042347;28;20044;-68
2023/12/18 03:28:46;;;;;;;86.53;80.73;;;4.10;99.90;;;;;;5032231;28;20037;-68
2023/12/18 03:31:12;;;;;;;92.53;86.10;;;4.10;99.90;;;;;;5043202;28;20504;-68
2023/12/18 03:33:38;;;;;;;65.20;60.23;;;4.10;99.90;;;;;;5050368;28;20045;-68
2023/12/18 03:36:05;;;;;;;74.63;68.43;;;4.20;99.90;;;;;;5038333;28;20029;-68
2023/12/18 03:38:31;;;;;;;65.47;60.57;;;4.20;99.90;;;;;;5035489;28;20045;-68
2023/12/18 03:40:57;;;;;;;67.73;62.53;;;4.10;99.90;;;;;;5042137;28;20029;-68
2023/12/18 03:43:26;;;;;;;50.93;45.73;;;4.00;99.90;;;;;;5039515;28;20037;-68
2023/12/18 03:45:52;;;;;;;44.97;41.20;;;4.00;99.90;;;;;;5034680;28;20041;-68
2023/12/18 03:48:19;;;;;;;49.93;45.47;;;4.20;99.90;;;;;;5041782;28;20021;-68
2023/12/18 03:50:45;;;;;;;39.17;35.73;;;4.10;99.90;;;;;;5037866;28;20021;-68
2023/12/18 03:53:12;;;;;;;60.70;56.27;;;4.20;99.90;;;;;;5045360;28;20025;-68
2023/12/18 03:55:38;;;;;;;39.70;35.73;;;4.20;99.90;;;;;;5036724;28;20037;-68
2023/12/18 03:58:05;;;;;;;38.03;34.43;;;4.20;99.90;;;;;;5025985;28;20046;-68
2023/12/18 04:00:31;;;;;;;44.23;40.33;;;4.40;99.90;;;;;;5034311;28;20037;-68
2023/12/18 04:02:57;;;;;;;35.23;32.13;;;4.40;99.90;;;;;;5042152;28;20032;-68
2023/12/18 04:05:26;;;;;;;37.17;33.87;;;4.60;99.90;;;;;;5037818;28;20470;-68
2023/12/18 04:07:52;;;;;;;36.47;33.07;;;4.70;99.90;;;;;;5051403;28;20048;-68
2023/12/18 04:10:18;;;;;;;38.30;34.97;;;4.70;99.90;;;;;;5051553;28;20029;-68
2023/12/18 04:12:44;;;;;;;33.47;30.33;;;4.80;99.90;;;;;;5050438;28;20040;-68
2023/12/18 04:15:11;;;;;;;43.27;39.60;;;4.90;99.90;;;;;;5050508;28;20033;-68
2023/12/18 04:17:37;;;;;;;43.93;40.30;;;4.90;99.90;;;;;;5044435;28;20049;-68
2023/12/18 04:20:04;;;;;;;59.93;55.83;;;5.00;99.90;;;;;;5049273;28;20048;-68
2023/12/18 04:22:30;;;;;;;65.33;60.63;;;5.00;99.90;;;;;;5051013;28;20045;-68
2023/12/18 04:24:56;;;;;;;65.07;60.57;;;5.00;99.90;;;;;;5050596;28;20037;-68
2023/12/18 04:27:22;;;;;;;71.53;66.77;;;5.10;99.90;;;;;;5026902;28;20393;-69
2023/12/18 04:29:48;;;;;;;70.03;65.37;;;5.10;99.90;;;;;;5054596;28;20097;-68
2023/12/18 04:32:15;;;;;;;64.13;59.90;;;5.10;99.90;;;;;;5048880;28;20036;-68
2023/12/18 04:34:42;;;;;;;47.00;43.57;;;5.10;99.90;;;;;;5054268;28;20036;-68
2023/12/18 04:37:09;;;;;;;46.20;42.90;;;5.00;99.90;;;;;;5049483;28;20051;-68
2023/12/18 04:39:35;;;;;;;49.97;46.43;;;5.00;99.90;;;;;;5046223;28;20056;-68
2023/12/18 04:42:01;;;;;;;49.13;45.80;;;5.10;99.90;;;;;;5047117;28;20047;-68
2023/12/18 04:44:28;;;;;;;51.50;47.37;;;5.10;99.90;;;;;;5053773;28;20033;-68
2023/12/18 04:46:54;;;;;;;62.87;58.60;;;5.10;99.90;;;;;;5053468;28;20037;-68
2023/12/18 04:49:20;;;;;;;44.93;41.53;;;5.10;99.90;;;;;;5053206;28;20033;-68
2023/12/18 04:51:49;;;;;;;52.37;48.63;;;5.00;99.90;;;;;;5043838;28;20049;-74
2023/12/18 04:54:15;;;;;;;41.70;38.50;;;5.00;99.90;;;;;;5041188;28;20038;-74
2023/12/18 04:56:41;;;;;;;39.27;36.40;;;5.00;99.90;;;;;;5049308;28;20032;-73
2023/12/18 04:59:08;;;;;;;43.90;40.53;;;5.00;99.90;;;;;;5039375;28;20048;-74
2023/12/18 05:01:34;;;;;;;38.70;35.63;;;5.00;99.90;;;;;;5043181;28;20405;-75
2023/12/18 05:04:00;;;;;;;37.87;34.97;;;5.10;99.90;;;;;;5052176;28;20040;-74
2023/12/18 05:06:29;;;;;;;39.63;36.57;;;5.10;99.90;;;;;;5051322;28;20029;-73
2023/12/18 05:08:55;;;;;;;44.20;41.07;;;5.10;99.90;;;;;;5049859;28;20081;-74
2023/12/18 05:11:24;;;;;;;34.83;32.30;;;5.00;99.90;;;;;;5047704;28;20045;-74
2023/12/18 05:13:50;;;;;;;39.20;36.43;;;4.90;99.90;;;;;;5050639;28;20048;-73
2023/12/18 05:16:18;;;;;;;34.70;32.03;;;4.90;99.90;;;;;;5047513;28;20394;-73
2023/12/18 05:18:44;;;;;;;34.67;31.97;;;4.80;99.90;;;;;;5044024;28;20045;-74
2023/12/18 05:21:11;;;;;;;559.03;82.60;;;4.90;99.90;;;;;;5045109;28;20473;-73
2023/12/18 05:23:38;;;;;;;34.07;31.37;;;4.90;99.90;;;;;;5052434;28;20036;-74
2023/12/18 05:26:04;;;;;;;45.27;42.00;;;4.90;99.90;;;;;;5043587;28;20029;-74
2023/12/18 05:28:30;;;;;;;569.77;77.27;;;4.90;99.90;;;;;;5043569;28;20385;-74
2023/12/18 05:30:56;;;;;;;36.17;33.50;;;4.90;99.90;;;;;;5052756;28;20029;-74
2023/12/18 05:33:22;;;;;;;40.90;37.97;;;4.90;99.90;;;;;;5054305;28;20461;-74
2023/12/18 05:35:48;;;;;;;58.70;51.40;;;4.80;99.90;;;;;;5042914;28;20079;-75
2023/12/18 05:38:15;;;;;;;368.43;64.73;;;4.80;99.90;;;;;;5042367;28;20033;-74
2023/12/18 05:40:41;;;;;;;90.80;85.43;;;4.90;99.90;;;;;;5047075;28;20130;-74
2023/12/18 05:43:07;;;;;;;46.10;42.97;;;4.90;99.90;;;;;;5034094;28;20029;-73
2023/12/18 05:45:33;;;;;;;36.23;33.70;;;4.90;99.90;;;;;;5033646;28;20037;-73
2023/12/18 05:47:59;;;;;;;33.33;30.90;;;4.80;99.90;;;;;;5032928;28;20033;-74
2023/12/18 05:50:26;;;;;;;43.93;41.03;;;4.50;99.90;;;;;;5032586;28;20048;-72
2023/12/18 05:52:52;;;;;;;44.27;41.40;;;4.20;99.90;;;;;;5032685;28;20053;-74
2023/12/18 05:55:18;;;;;;;37.93;35.33;;;4.20;99.90;;;;;;5040323;28;20033;-72
2023/12/18 05:57:44;;;;;;;38.17;35.47;;;4.20;99.90;;;;;;5034085;28;20045;-72
2023/12/18 06:00:11;;;;;;;64.80;60.87;;;4.20;99.90;;;;;;5032982;28;20460;-73
2023/12/18 06:02:37;;;;;;;42.23;39.40;;;4.40;99.90;;;;;;5034582;28;20044;-72
2023/12/18 06:05:04;;;;;;;49.17;46.03;;;4.40;99.90;;;;;;5039295;28;20374;-72
2023/12/18 06:07:30;;;;;;;75.93;68.60;;;4.40;99.90;;;;;;5046370;28;20041;-72
2023/12/18 06:09:56;;;;;;;84.93;76.77;;;4.50;99.90;;;;;;5042220;28;20492;-72
2023/12/18 06:12:22;;;;;;;122.13;113.30;;;4.60;99.90;;;;;;5035025;28;20470;-72
2023/12/18 06:14:48;;;;;;;67.20;33.60;;;4.70;99.90;;;;;;5044769;28;20040;-72
2023/12/18 06:17:14;;;;;;;35.40;33.03;;;4.70;99.90;;;;;;5039079;28;20413;-72
2023/12/18 06:19:40;;;;;;;135.73;38.20;;;4.80;99.90;;;;;;5046779;28;20049;-72
2023/12/18 06:22:06;;;;;;;36.80;34.37;;;4.70;99.90;;;;;;5052251;28;20045;-72
2023/12/18 06:24:32;;;;;;;36.97;34.50;;;4.60;99.90;;;;;;5047550;28;20045;-72
2023/12/18 06:26:59;;;;;;;37.53;34.93;;;4.50;99.90;;;;;;5033141;28;20049;-72
2023/12/18 06:29:27;;;;;;;115.13;36.17;;;4.40;99.90;;;;;;5041133;28;20100;-72
2023/12/18 06:31:54;;;;;;;216.93;41.30;;;4.40;99.90;;;;;;5052052;28;20044;-72
2023/12/18 06:34:20;;;;;;;58.73;33.40;;;4.50;99.90;;;;;;5053304;28;20025;-72
2023/12/18 06:36:46;;;;;;;410.57;45.37;;;4.60;99.90;;;;;;5040236;28;20398;-72
2023/12/18 06:39:13;;;;;;;390.23;58.30;;;4.60;99.90;;;;;;5033307;28;20064;-72
2023/12/18 06:41:39;;;;;;;58.90;48.60;;;4.70;99.90;;;;;;5033124;28;20029;-72
2023/12/18 06:44:05;;;;;;;171.83;57.23;;;4.70;99.90;;;;;;5032720;28;20037;-73
2023/12/18 06:46:33;;;;;;;94.07;53.23;;;4.80;99.90;;;;;;5031736;28;20046;-72
2023/12/18 06:49:01;;;;;;;194.83;47.00;;;4.80;99.90;;;;;;5052589;28;20052;-72
2023/12/18 06:51:27;;;;;;;66.07;61.50;;;4.80;99.90;;;;;;5032037;28;20048;-72
2023/12/18 06:53:53;;;;;;;39.23;36.80;;;4.80;99.90;;;;;;5031909;28;20037;-72
2023/12/18 06:56:19;;;;;;;38.83;36.43;;;4.60;99.90;;;;;;5032556;28;20048;-73
2023/12/18 06:58:45;;;;;;;39.97;37.10;;;4.30;99.90;;;;;;5045339;28;20052;-74
2023/12/18 07:01:15;;;;;;;46.03;43.20;;;3.90;99.90;;;;;;5047445;28;20056;-74
2023/12/18 07:03:41;;;;;;;60.30;56.93;;;3.70;99.90;;;;;;5031519;28;20025;-75
2023/12/18 07:06:07;;;;;;;48.20;45.20;;;3.50;99.90;;;;;;5033582;28;20045;-74
2023/12/18 07:08:33;;;;;;;32.00;29.80;;;3.40;99.90;;;;;;5036342;28;20048;-74
2023/12/18 07:10:59;;;;;;;33.10;30.70;;;3.60;99.90;;;;;;5045061;28;20030;-74
2023/12/18 07:13:25;;;;;;;29.53;27.43;;;3.80;99.90;;;;;;5035073;28;20482;-74
2023/12/18 07:15:51;;;;;;;29.73;27.63;;;4.00;99.90;;;;;;5025146;28;20037;-74
2023/12/18 07:18:18;;;;;;;32.60;30.60;;;4.00;99.90;;;;;;5052420;28;20390;-74
2023/12/18 07:20:44;;;;;;;31.67;29.50;;;4.00;99.90;;;;;;5032632;28;20041;-74
2023/12/18 07:23:10;;;;;;;32.27;30.03;;;4.10;99.90;;;;;;5032260;28;20034;-75
2023/12/18 07:25:37;;;;;;;34.47;32.30;;;4.10;99.90;;;;;;5041937;28;20044;-74
2023/12/18 07:28:07;;;;;;;36.20;33.90;;;3.80;99.90;;;;;;5035495;28;20037;-75
2023/12/18 07:30:34;;;;;;;37.58;35.10;;;3.60;99.90;;;;;;5049032;28;20108;-74
2023/12/18 07:33:00;;;;;;;35.00;32.70;;;3.80;99.90;;;;;;5051193;28;20033;-74
2023/12/18 07:35:26;;;;;;;45.50;42.57;;;3.70;99.90;;;;;;5051117;28;20036;-74
2023/12/18 07:37:52;;;;;;;41.00;38.13;;;3.60;99.90;;;;;;5046402;28;20037;-74
2023/12/18 07:40:18;;;;;;;38.37;35.67;;;3.40;99.90;;;;;;5035957;28;20037;-73
2023/12/18 07:42:44;;;;;;;31.60;29.20;;;3.60;99.90;;;;;;5013525;28;20045;-75
2023/12/18 07:45:10;;;;;;;32.43;30.03;;;3.80;99.90;;;;;;5030022;28;20037;-75
2023/12/18 07:47:37;;;;;;;31.70;29.30;;;3.90;99.90;;;;;;5032376;28;20033;-74
2023/12/18 07:50:07;;;;;;;31.90;29.50;;;4.00;99.90;;;;;;5034007;28;20428;-74
2023/12/18 07:52:34;;;;;;;35.57;33.07;;;4.20;99.90;;;;;;5030510;28;20030;-74
2023/12/18 07:55:00;;;;;;;41.63;38.57;;;4.20;99.90;;;;;;5030970;28;20382;-75
2023/12/18 07:57:26;;;;;;;48.07;44.80;;;3.80;99.90;;;;;;5031481;28;20049;-80
2023/12/18 07:59:54;;;;;;;45.60;42.63;;;3.70;99.90;;;;;;5030554;28;20045;-71
2023/12/18 08:02:20;;;;;;;43.53;40.30;;;3.50;99.90;;;;;;5027622;28;20041;-72
2023/12/18 08:04:46;;;;;;;34.07;31.57;;;3.50;99.90;;;;;;5046061;28;20034;-71
2023/12/18 08:07:12;;;;;;;37.23;34.60;;;3.60;99.90;;;;;;5018120;28;20037;-72
2023/12/18 08:09:38;;;;;;;42.10;39.03;;;3.50;99.90;;;;;;5055919;28;20029;-72
2023/12/18 08:12:05;;;;;;;45.73;42.67;;;3.50;99.90;;;;;;5051419;28;20036;-72
2023/12/18 08:14:31;;;;;;;40.67;37.70;;;3.40;99.90;;;;;;5035587;28;20022;-71
2023/12/18 08:16:57;;;;;;;318.00;53.23;;;3.30;99.90;;;;;;5035393;28;20033;-69
2023/12/18 08:19:23;;;;;;;63.00;58.97;;;3.70;99.90;;;;;;5045145;28;20049;-68
2023/12/18 08:21:49;;;;;;;38.10;35.03;;;4.10;99.90;;;;;;5052043;28;20043;-69
2023/12/18 08:24:15;;;;;;;69.43;64.83;;;4.60;99.90;;;;;;5053370;28;20045;-71
2023/12/18 08:26:41;;;;;;;79.73;74.73;;;4.70;99.90;;;;;;5054785;28;20037;-72
2023/12/18 08:29:10;;;;;;;41.87;38.87;;;4.60;99.90;;;;;;5055199;28;20040;-71
2023/12/18 08:31:37;;;;;;;59.00;55.20;;;4.50;99.90;;;;;;5054579;28;20497;-72
2023/12/18 08:34:03;;;;;;;87.70;82.43;;;4.60;99.90;;;;;;5053268;28;20072;-72
2023/12/18 08:36:30;;;;;;;48.70;45.20;;;4.40;99.90;;;;;;5052717;28;20409;-71
2023/12/18 08:38:56;;;;;;;47.27;43.87;;;4.30;99.90;;;;;;5044786;28;20033;-72
2023/12/18 08:41:22;;;;;;;39.33;35.97;;;4.00;99.90;;;;;;5054546;28;20037;-71
2023/12/18 08:43:48;;;;;;;39.80;36.60;;;4.00;99.90;;;;;;5045684;28;20021;-72
2023/12/18 08:46:14;;;;;;;34.87;31.87;;;4.00;99.90;;;;;;5041987;28;20463;-72
2023/12/18 08:48:40;;;;;;;34.40;31.60;;;4.00;99.90;;;;;;5035756;28;20029;-72
2023/12/18 08:51:06;;;;;;;39.73;36.63;;;4.00;99.90;;;;;;5046810;28;20381;-71
2023/12/18 08:53:33;;;;;;;38.50;35.33;;;3.80;99.90;;;;;;5054419;28;20036;-72
2023/12/18 08:56:00;;;;;;;36.57;33.63;;;3.80;99.90;;;;;;5053844;28;20029;-72
2023/12/18 08:58:26;;;;;;;39.30;35.87;;;3.60;99.90;;;;;;5053992;28;20025;-70
2023/12/18 09:00:56;;;;;;;38.47;35.23;;;3.70;99.90;;;;;;5053881;28;20037;-72
2023/12/18 09:03:22;;;;;;;34.03;31.13;;;3.70;99.90;;;;;;5053326;28;20025;-72
2023/12/18 09:05:49;;;;;;;34.80;32.00;;;4.00;99.90;;;;;;5049696;28;20059;-72
2023/12/18 09:08:15;;;;;;;34.50;31.57;;;4.10;99.90;;;;;;5047079;28;20036;-71
2023/12/18 09:10:42;;;;;;;34.90;32.03;;;4.00;99.90;;;;;;5054161;28;20021;-72
2023/12/18 09:13:08;;;;;;;36.57;33.57;;;4.20;99.90;;;;;;5048084;28;20029;-72
2023/12/18 09:15:34;;;;;;;47.17;43.60;;;4.30;99.90;;;;;;5034834;28;20044;-72
2023/12/18 09:18:00;;;;;;;34.93;31.90;;;3.90;99.90;;;;;;5046105;28;20042;-72
2023/12/18 09:20:26;;;;;;;37.30;34.30;;;3.70;99.90;;;;;;5041945;28;20053;-71
2023/12/18 09:22:52;;;;;;;35.23;32.07;;;3.90;99.90;;;;;;5053896;28;20025;-72
2023/12/18 09:25:18;;;;;;;35.50;32.47;;;4.20;99.90;;;;;;5050782;28;20045;-72
2023/12/18 09:28:16;;;;;;;52.40;48.50;;;4.40;99.90;;;;;;5044628;28;20053;-71
2023/12/18 09:30:48;;;;;;;43.60;39.80;;;4.40;99.90;;;;;;5031950;28;20048;-71
2023/12/18 09:33:14;;;;;;;44.07;40.47;;;4.40;99.90;;;;;;5036321;28;20389;-71
2023/12/18 09:35:40;;;;;;;73.90;68.83;;;4.30;99.90;;;;;;5034801;28;20036;-71
2023/12/18 09:38:06;;;;;;;43.30;40.00;;;4.00;99.90;;;;;;5042817;28;20385;-71
2023/12/18 09:40:32;;;;;;;45.67;42.20;;;3.80;99.90;;;;;;5051525;28;20239;-70
2023/12/18 09:42:58;;;;;;;51.27;47.53;;;4.00;99.90;;;;;;5023669;28;20037;-71
2023/12/18 09:45:25;;;;;;;46.50;42.70;;;4.30;99.90;;;;;;5043612;28;20036;-72
2023/12/18 09:47:52;;;;;;;38.20;35.20;;;4.40;99.90;;;;;;5047868;28;20052;-72
2023/12/18 09:50:19;;;;;;;42.03;38.80;;;4.20;99.90;;;;;;5051185;28;20358;-71
2023/12/18 09:53:08;;;;;;;44.60;41.33;;;4.30;99.90;;;;;;5033099;28;20045;-71
2023/12/18 09:55:34;;;;;;;39.13;36.03;;;4.10;99.90;;;;;;5044479;28;20025;-71
2023/12/18 09:58:00;;;;;;;46.37;42.90;;;3.90;99.90;;;;;;5044360;28;20025;-71
2023/12/18 10:00:27;;;;;;;46.97;43.03;;;4.00;99.90;;;;;;5037279;28;20060;-71
2023/12/18 10:02:56;;;;;;;46.20;42.80;;;4.10;99.90;;;;;;5048935;28;20377;-71
2023/12/18 10:05:22;;;;;;;61.47;38.40;;;4.40;99.90;;;;;;5033589;28;20029;-72
2023/12/18 10:07:48;;;;;;;43.83;40.40;;;4.30;99.90;;;;;;5031989;28;20030;-71
2023/12/18 10:10:18;;;;;;;43.30;39.77;;;4.40;99.90;;;;;;5032095;28;20021;-71
2023/12/18 10:12:45;;;;;;;41.10;37.63;;;4.50;99.90;;;;;;5041177;28;20033;-71
2023/12/18 10:15:11;;;;;;;48.27;44.47;;;4.60;99.90;;;;;;5031702;28;20059;-70
2023/12/18 10:17:44;;;;;;;63.87;59.50;;;4.70;99.90;;;;;;5050433;28;20454;-71
2023/12/18 10:20:11;;;;;;;56.13;52.20;;;4.80;99.90;;;;;;5032087;28;20053;-71
2023/12/18 10:22:41;;;;;;;61.80;57.57;;;4.90;99.90;;;;;;5040790;28;20026;-71
2023/12/18 10:25:08;;;;;;;53.20;49.53;;;4.90;99.90;;;;;;5039363;28;20488;-70
2023/12/18 10:27:38;;;;;;;49.90;46.10;;;4.80;99.90;;;;;;5033492;28;20033;-71
2023/12/18 10:30:07;;;;;;;54.70;50.80;;;4.80;99.90;;;;;;5028302;28;20037;-71
2023/12/18 10:32:37;;;;;;;51.60;47.97;;;4.90;99.90;;;;;;5026036;28;20405;-72
2023/12/18 10:35:04;;;;;;;67.87;63.47;;;5.00;99.90;;;;;;5046902;28;20057;-72
2023/12/18 10:37:31;;;;;;;63.77;59.50;;;4.90;99.90;;;;;;5035639;28;20033;-73
2023/12/18 10:40:04;;;;;;;60.23;56.17;;;5.00;99.90;;;;;;5031484;28;20064;-73
2023/12/18 10:42:31;;;;;;;67.63;63.00;;;5.00;99.90;;;;;;5051738;28;20021;-72
2023/12/18 10:44:59;;;;;;;63.70;59.33;;;5.00;99.90;;;;;;5052834;28;20025;-73
2023/12/18 10:47:25;;;;;;;65.43;61.07;;;5.00;99.90;;;;;;5033379;28;20033;-72
2023/12/18 10:49:53;;;;;;;61.17;57.07;;;5.10;99.90;;;;;;5032482;28;20021;-72
2023/12/18 10:52:20;;;;;;;62.57;58.37;;;5.20;99.90;;;;;;5050082;28;20048;-72
2023/12/18 10:54:46;;;;;;;56.93;52.83;;;5.30;99.90;;;;;;5039623;28;20053;-72
2023/12/18 10:57:15;;;;;;;69.57;64.97;;;5.00;99.90;;;;;;5046396;28;20434;-72
2023/12/18 10:59:41;;;;;;;41.70;38.30;;;4.60;99.90;;;;;;5032956;28;20057;-73
2023/12/18 11:02:07;;;;;;;43.10;39.73;;;4.50;99.90;;;;;;5045786;28;20044;-73
2023/12/18 11:04:35;;;;;;;47.77;42.83;;;4.60;99.90;;;;;;5050758;28;20381;-72
2023/12/18 11:07:02;;;;;;;61.90;57.57;;;4.70;99.90;;;;;;5035195;28;20030;-72
2023/12/18 11:09:28;;;;;;;65.87;61.53;;;4.50;99.90;;;;;;5031692;28;20038;-72
2023/12/18 11:11:54;;;;;;;41.77;38.50;;;4.20;99.90;;;;;;5050705;28;20668;-72
2023/12/18 11:14:43;;;;;;;45.77;42.13;;;4.20;99.90;;;;;;5051159;28;20025;-73
2023/12/18 11:17:42;;;;;;;48.03;44.50;;;4.40;99.90;;;;;;5019423;28;20037;-72
2023/12/18 11:20:24;;;;;;;72.00;67.40;;;4.40;99.90;;;;;;5030680;28;20045;-72
2023/12/18 11:22:52;;;;;;;55.40;51.53;;;4.60;99.90;;;;;;5014786;28;20041;-72
2023/12/18 11:25:19;;;;;;;40.33;37.47;;;4.70;99.90;;;;;;5032034;28;20493;-72
2023/12/18 11:27:45;;;;;;;35.13;32.10;;;4.30;99.90;;;;;;5041832;28;20036;-72
2023/12/18 11:30:22;;;;;;;50.17;46.27;;;4.10;99.90;;;;;;5050738;28;20037;-72
2023/12/18 11:33:17;;;;;;;46.23;42.53;;;4.10;99.90;;;;;;5050918;28;20045;-71
2023/12/18 11:35:48;;;;;;;42.47;39.33;;;4.10;99.90;;;;;;5036922;28;20028;-72
2023/12/18 11:38:15;;;;;;;57.20;53.13;;;4.00;99.90;;;;;;5029269;28;20029;-72
2023/12/18 11:40:42;;;;;;;55.77;51.87;;;3.90;99.90;;;;;;5030120;28;20358;-72
2023/12/18 11:43:36;;;;;;;38.40;35.23;;;3.90;99.90;;;;;;5046162;28;20762;-72
2023/12/18 11:46:07;;;;;;;34.13;31.30;;;4.00;99.90;;;;;;5025578;28;20033;-72
2023/12/18 11:48:33;;;;;;;30.88;28.27;;;4.20;99.90;;;;;;5029713;28;20363;-72
2023/12/18 11:51:01;;;;;;;35.87;32.87;;;4.30;99.90;;;;;;5014036;28;20056;-73
2023/12/18 11:53:31;;;;;;;46.03;42.50;;;4.40;99.90;;;;;;5029477;28;20048;-73
2023/12/18 11:55:57;;;;;;;39.13;36.20;;;4.30;99.90;;;;;;5044800;28;20044;-72
2023/12/18 11:58:27;;;;;;;33.97;31.27;;;4.30;99.90;;;;;;5042616;28;20034;-74
2023/12/18 12:00:54;;;;;;;36.27;33.57;;;4.50;99.90;;;;;;5029357;28;20045;-71
2023/12/18 12:03:22;;;;;;;41.43;38.67;;;4.60;99.90;;;;;;5029689;28;20028;-71
2023/12/18 12:05:48;;;;;;;45.73;42.70;;;4.60;99.90;;;;;;5029036;28;20041;-71
2023/12/18 12:08:14;;;;;;;45.30;42.33;;;4.50;99.90;;;;;;5042635;28;20029;-71
2023/12/18 12:10:47;;;;;;;38.50;35.80;;;4.40;99.90;;;;;;5049445;28;20393;-71
2023/12/18 12:13:21;;;;;;;32.00;29.60;;;4.40;99.90;;;;;;5049984;28;20032;-71
2023/12/18 12:15:56;;;;;;;32.60;30.10;;;4.50;99.90;;;;;;5045496;28;20041;-70
2023/12/18 12:18:29;;;;;;;38.30;35.27;;;4.70;99.90;;;;;;5029083;28;20470;-71
2023/12/18 12:20:56;;;;;;;46.97;43.87;;;4.60;99.90;;;;;;5037425;28;20033;-71
2023/12/18 12:23:23;;;;;;;36.90;34.40;;;4.60;99.90;;;;;;5032752;28;20370;-72
2023/12/18 12:25:50;;;;;;;40.43;37.57;;;4.60;99.90;;;;;;5044420;28;20081;-71
2023/12/18 12:28:17;;;;;;;35.20;32.60;;;4.60;99.90;;;;;;5031242;28;20451;-72
2023/12/18 12:30:43;;;;;;;54.77;51.13;;;4.70;99.90;;;;;;5029564;28;20040;-71
2023/12/18 12:33:10;;;;;;;45.30;42.23;;;4.80;99.90;;;;;;5028877;28;20041;-71
2023/12/18 12:35:36;;;;;;;44.90;41.77;;;4.90;99.90;;;;;;5029673;28;20029;-71